createdAt,value
2019-03-26T00:00:52.386Z,0.00
2019-03-26T00:01:52.377Z,0.00
2019-03-26T00:02:52.461Z,0.00
2019-03-26T00:04:04.881Z,0.00
2019-03-26T00:04:53.341Z,0.00
2019-03-26T00:05:52.332Z,0.00
2019-03-26T00:06:52.321Z,0.00
2019-03-26T00:07:52.306Z,0.00
2019-03-26T00:08:52.492Z,0.00
2019-03-26T00:09:52.283Z,0.00
2019-03-26T00:10:52.273Z,0.00
2019-03-26T00:11:52.261Z,0.00
2019-03-26T00:12:52.250Z,0.00
2019-03-26T00:13:52.240Z,0.00
2019-03-26T00:14:52.349Z,0.00
2019-03-26T00:15:52.228Z,0.00
2019-03-26T00:16:52.210Z,0.00
2019-03-26T00:17:52.198Z,0.00
2019-03-26T00:18:52.195Z,0.00
2019-03-26T00:19:52.176Z,0.00
2019-03-26T00:20:52.427Z,0.00
2019-03-26T00:21:52.165Z,0.00
2019-03-26T00:22:52.147Z,0.00
2019-03-26T00:23:52.137Z,0.00
2019-03-26T00:24:52.127Z,0.00
2019-03-26T00:25:52.112Z,0.00
2019-03-26T00:26:52.292Z,0.00
2019-03-26T00:27:52.099Z,0.00
2019-03-26T00:28:53.035Z,0.00
2019-03-26T00:29:52.068Z,0.00
2019-03-26T00:30:52.056Z,0.00
2019-03-26T00:31:52.048Z,0.00
2019-03-26T00:32:52.130Z,0.00
2019-03-26T00:33:52.025Z,0.00
2019-03-26T00:34:52.014Z,0.00
2019-03-26T00:35:52.003Z,0.00
2019-03-26T00:36:52.066Z,0.00
2019-03-26T00:37:51.982Z,0.00
2019-03-26T00:38:52.171Z,0.00
2019-03-26T00:39:51.971Z,0.00
2019-03-26T00:40:51.948Z,0.00
2019-03-26T00:41:51.938Z,0.00
2019-03-26T00:42:51.933Z,0.00
2019-03-26T00:43:51.927Z,0.00
2019-03-26T00:44:52.150Z,0.00
2019-03-26T00:45:51.899Z,0.00
2019-03-26T00:46:51.886Z,0.00
2019-03-26T00:47:51.874Z,0.00
2019-03-26T00:48:51.870Z,0.00
2019-03-26T00:49:51.873Z,0.00
2019-03-26T00:50:51.937Z,0.00
2019-03-26T00:51:51.829Z,0.00
2019-03-26T00:52:51.818Z,0.00
2019-03-26T00:53:51.814Z,0.00
2019-03-26T00:54:51.798Z,0.00
2019-03-26T00:55:51.787Z,0.00
2019-03-26T00:56:51.869Z,0.00
2019-03-26T00:57:51.764Z,0.00
2019-03-26T00:58:51.755Z,0.00
2019-03-26T00:59:51.747Z,0.00
2019-03-26T01:00:51.736Z,0.00
2019-03-26T01:01:51.724Z,0.00
2019-03-26T01:02:52.013Z,0.00
2019-03-26T01:03:54.855Z,0.00
2019-03-26T01:04:51.692Z,0.00
2019-03-26T01:05:51.681Z,0.00
2019-03-26T01:06:51.671Z,0.00
2019-03-26T01:07:51.659Z,0.00
2019-03-26T01:08:51.763Z,0.00
2019-03-26T01:09:51.641Z,0.00
2019-03-26T01:10:51.631Z,0.00
2019-03-26T01:11:51.623Z,0.00
2019-03-26T01:12:51.603Z,0.00
2019-03-26T01:13:51.594Z,0.00
2019-03-26T01:14:51.853Z,0.00
2019-03-26T01:15:51.572Z,0.00
2019-03-26T01:16:51.562Z,0.00
2019-03-26T01:17:51.551Z,0.00
2019-03-26T01:18:51.541Z,0.00
2019-03-26T01:19:51.527Z,0.00
2019-03-26T01:20:51.678Z,0.00
2019-03-26T01:21:51.506Z,0.00
2019-03-26T01:22:51.494Z,0.00
2019-03-26T01:23:51.485Z,0.00
2019-03-26T01:24:51.477Z,0.00
2019-03-26T01:25:51.467Z,0.00
2019-03-26T01:26:51.561Z,0.00
2019-03-26T01:27:51.443Z,0.00
2019-03-26T01:28:51.434Z,0.00
2019-03-26T01:29:51.427Z,0.00
2019-03-26T01:30:51.415Z,0.00
2019-03-26T01:31:51.403Z,0.00
2019-03-26T01:32:52.536Z,0.00
2019-03-26T01:33:51.377Z,0.00
2019-03-26T01:34:51.377Z,0.00
2019-03-26T01:35:52.040Z,0.00
2019-03-26T01:36:51.347Z,0.00
2019-03-26T01:37:51.335Z,0.00
2019-03-26T01:38:51.484Z,0.00
2019-03-26T01:39:51.312Z,0.00
2019-03-26T01:40:51.301Z,0.00
2019-03-26T01:41:51.289Z,0.00
2019-03-26T01:42:51.286Z,0.00
2019-03-26T01:43:51.270Z,0.00
2019-03-26T01:44:51.354Z,0.00
2019-03-26T01:45:51.250Z,0.00
2019-03-26T01:46:51.239Z,0.00
2019-03-26T01:47:51.227Z,0.00
2019-03-26T01:48:51.219Z,0.00
2019-03-26T01:49:51.211Z,0.00
2019-03-26T01:50:51.498Z,0.00
2019-03-26T01:51:51.186Z,0.00
2019-03-26T01:52:51.175Z,0.00
2019-03-26T01:53:51.167Z,0.00
2019-03-26T01:54:51.156Z,0.00
2019-03-26T01:55:51.145Z,0.00
2019-03-26T01:56:51.240Z,0.00
2019-03-26T01:57:51.130Z,0.00
2019-03-26T01:58:51.106Z,0.00
2019-03-26T01:59:51.113Z,0.00
2019-03-26T02:00:51.085Z,0.00
2019-03-26T02:01:51.105Z,0.00
2019-03-26T02:02:51.159Z,0.00
2019-03-26T02:03:51.053Z,0.00
2019-03-26T02:04:59.845Z,0.00
2019-03-26T02:05:52.029Z,0.00
2019-03-26T02:06:51.027Z,0.00
2019-03-26T02:07:51.013Z,0.00
2019-03-26T02:08:51.161Z,0.00
2019-03-26T02:09:50.988Z,0.00
2019-03-26T02:10:50.978Z,0.00
2019-03-26T02:11:50.967Z,0.00
2019-03-26T02:12:50.959Z,0.00
2019-03-26T02:13:50.947Z,0.00
2019-03-26T02:14:51.163Z,0.00
2019-03-26T02:15:50.927Z,0.00
2019-03-26T02:16:50.920Z,0.00
2019-03-26T02:17:50.908Z,0.00
2019-03-26T02:18:50.898Z,0.00
2019-03-26T02:19:50.884Z,0.00
2019-03-26T02:20:50.970Z,0.00
2019-03-26T02:21:50.859Z,0.00
2019-03-26T02:22:50.851Z,0.00
2019-03-26T02:23:50.868Z,0.00
2019-03-26T02:24:50.832Z,0.00
2019-03-26T02:25:50.833Z,0.00
2019-03-26T02:26:50.965Z,0.00
2019-03-26T02:27:50.793Z,0.00
2019-03-26T02:28:50.783Z,0.00
2019-03-26T02:29:50.786Z,0.00
2019-03-26T02:30:50.762Z,0.00
2019-03-26T02:31:50.751Z,0.00
2019-03-26T02:32:50.838Z,0.00
2019-03-26T02:33:50.731Z,0.00
2019-03-26T02:34:50.719Z,0.00
2019-03-26T02:35:50.722Z,0.00
2019-03-26T02:36:50.702Z,0.00
2019-03-26T02:37:50.690Z,0.00
2019-03-26T02:38:50.766Z,0.00
2019-03-26T02:39:50.669Z,0.00
2019-03-26T02:40:50.661Z,0.00
2019-03-26T02:41:50.642Z,0.00
2019-03-26T02:42:50.639Z,0.00
2019-03-26T02:43:50.630Z,0.00
2019-03-26T02:44:50.964Z,0.00
2019-03-26T02:45:50.603Z,0.00
2019-03-26T02:46:50.588Z,0.00
2019-03-26T02:47:50.577Z,0.00
2019-03-26T02:48:50.643Z,0.00
2019-03-26T02:49:50.561Z,0.00
2019-03-26T02:50:50.664Z,0.00
2019-03-26T02:51:50.535Z,0.00
2019-03-26T02:52:50.540Z,0.00
2019-03-26T02:53:50.517Z,0.00
2019-03-26T02:54:50.504Z,0.00
2019-03-26T02:55:50.494Z,0.00
2019-03-26T02:56:50.581Z,0.00
2019-03-26T02:57:50.470Z,0.00
2019-03-26T02:58:50.462Z,0.00
2019-03-26T02:59:50.456Z,0.00
2019-03-26T03:00:50.442Z,0.00
2019-03-26T03:01:50.430Z,0.00
2019-03-26T03:02:50.577Z,0.00
2019-03-26T03:03:50.412Z,0.00
2019-03-26T03:04:50.395Z,0.00
2019-03-26T03:05:50.433Z,0.00
2019-03-26T03:06:50.374Z,0.00
2019-03-26T03:07:50.361Z,0.00
2019-03-26T03:08:50.571Z,0.00
2019-03-26T03:09:50.341Z,0.00
2019-03-26T03:10:50.434Z,0.00
2019-03-26T03:11:50.321Z,0.00
2019-03-26T03:12:50.308Z,0.00
2019-03-26T03:13:50.296Z,0.00
2019-03-26T03:14:50.380Z,0.00
2019-03-26T03:15:50.282Z,0.00
2019-03-26T03:16:50.264Z,0.00
2019-03-26T03:17:50.252Z,0.00
2019-03-26T03:18:50.246Z,0.00
2019-03-26T03:19:50.236Z,0.00
2019-03-26T03:20:50.384Z,0.00
2019-03-26T03:21:50.216Z,0.00
2019-03-26T03:22:50.205Z,0.00
2019-03-26T03:23:50.191Z,0.00
2019-03-26T03:24:50.178Z,0.00
2019-03-26T03:25:50.167Z,0.00
2019-03-26T03:26:50.269Z,0.00
2019-03-26T03:27:50.164Z,0.00
2019-03-26T03:28:50.135Z,0.00
2019-03-26T03:29:50.124Z,0.00
2019-03-26T03:30:50.148Z,0.00
2019-03-26T03:31:50.106Z,0.00
2019-03-26T03:32:50.261Z,0.00
2019-03-26T03:33:50.080Z,0.00
2019-03-26T03:34:50.088Z,0.00
2019-03-26T03:35:52.612Z,0.00
2019-03-26T03:36:50.054Z,0.00
2019-03-26T03:37:50.037Z,0.00
2019-03-26T03:38:50.148Z,0.00
2019-03-26T03:39:50.019Z,0.00
2019-03-26T03:40:50.006Z,0.00
2019-03-26T03:41:49.994Z,0.00
2019-03-26T03:42:49.997Z,0.00
2019-03-26T03:43:49.974Z,4.00
2019-03-26T03:44:50.082Z,4.00
2019-03-26T03:45:49.954Z,4.00
2019-03-26T03:46:49.944Z,4.00
2019-03-26T03:47:49.933Z,0.00
2019-03-26T03:48:49.937Z,0.00
2019-03-26T03:49:49.915Z,4.00
2019-03-26T03:50:49.995Z,4.00
2019-03-26T03:51:49.888Z,4.00
2019-03-26T03:52:49.878Z,4.00
2019-03-26T03:53:49.865Z,4.00
2019-03-26T03:54:49.856Z,4.00
2019-03-26T03:55:49.848Z,4.00
2019-03-26T03:56:49.991Z,4.00
2019-03-26T03:57:52.859Z,4.00
2019-03-26T03:58:49.812Z,4.00
2019-03-26T03:59:49.804Z,8.00
2019-03-26T04:00:49.791Z,4.00
2019-03-26T04:01:49.780Z,4.00
2019-03-26T04:02:49.883Z,4.00
2019-03-26T04:03:49.758Z,4.00
2019-03-26T04:04:49.748Z,4.00
2019-03-26T04:05:49.741Z,4.00
2019-03-26T04:06:49.736Z,4.00
2019-03-26T04:07:49.717Z,4.00
2019-03-26T04:08:49.811Z,8.00
2019-03-26T04:09:49.695Z,8.00
2019-03-26T04:10:49.684Z,4.00
2019-03-26T04:11:49.679Z,4.00
2019-03-26T04:12:49.665Z,4.00
2019-03-26T04:13:49.657Z,4.00
2019-03-26T04:14:49.905Z,8.00
2019-03-26T04:15:49.633Z,8.00
2019-03-26T04:16:49.623Z,4.00
2019-03-26T04:17:49.620Z,8.00
2019-03-26T04:18:49.600Z,4.00
2019-03-26T04:19:49.587Z,8.00
2019-03-26T04:20:49.671Z,4.00
2019-03-26T04:21:49.569Z,8.00
2019-03-26T04:22:49.557Z,8.00
2019-03-26T04:23:49.542Z,8.00
2019-03-26T04:24:49.533Z,8.00
2019-03-26T04:25:49.522Z,4.00
2019-03-26T04:26:49.668Z,4.00
2019-03-26T04:27:49.504Z,8.00
2019-03-26T04:28:49.489Z,8.00
2019-03-26T04:29:49.477Z,4.00
2019-03-26T04:30:49.472Z,8.00
2019-03-26T04:31:49.459Z,8.00
2019-03-26T04:32:49.546Z,4.00
2019-03-26T04:33:49.438Z,8.00
2019-03-26T04:34:49.428Z,8.00
2019-03-26T04:35:49.414Z,4.00
2019-03-26T04:36:49.405Z,8.00
2019-03-26T04:37:49.397Z,8.00
2019-03-26T04:38:49.484Z,4.00
2019-03-26T04:39:49.369Z,8.00
2019-03-26T04:40:49.367Z,4.00
2019-03-26T04:41:49.347Z,4.00
2019-03-26T04:42:49.336Z,4.00
2019-03-26T04:43:49.327Z,4.00
2019-03-26T04:44:49.608Z,4.00
2019-03-26T04:45:49.303Z,4.00
2019-03-26T04:46:49.294Z,4.00
2019-03-26T04:47:49.283Z,4.00
2019-03-26T04:48:49.271Z,4.00
2019-03-26T04:49:49.266Z,4.00
2019-03-26T04:50:49.531Z,4.00
2019-03-26T04:51:49.246Z,4.00
2019-03-26T04:52:49.229Z,4.00
2019-03-26T04:53:49.220Z,4.00
2019-03-26T04:54:49.303Z,4.00
2019-03-26T04:55:49.204Z,4.00
2019-03-26T04:56:49.305Z,4.00
2019-03-26T04:57:49.176Z,4.00
2019-03-26T04:58:49.165Z,4.00
2019-03-26T04:59:49.159Z,4.00
2019-03-26T05:00:49.152Z,8.00
2019-03-26T05:01:49.131Z,8.00
2019-03-26T05:02:49.341Z,8.00
2019-03-26T05:03:49.127Z,4.00
2019-03-26T05:04:49.102Z,4.00
2019-03-26T05:05:49.093Z,4.00
2019-03-26T05:06:49.085Z,8.00
2019-03-26T05:07:49.069Z,8.00
2019-03-26T05:08:49.156Z,8.00
2019-03-26T05:09:49.055Z,4.00
2019-03-26T05:10:49.350Z,8.00
2019-03-26T05:11:49.023Z,8.00
2019-03-26T05:12:49.020Z,8.00
2019-03-26T05:13:49.003Z,8.00
2019-03-26T05:14:49.091Z,8.00
2019-03-26T05:15:48.985Z,12.00
2019-03-26T05:16:48.971Z,8.00
2019-03-26T05:17:48.961Z,8.00
2019-03-26T05:18:48.947Z,8.00
2019-03-26T05:19:48.938Z,8.00
2019-03-26T05:20:49.089Z,8.00
2019-03-26T05:21:48.918Z,8.00
2019-03-26T05:22:48.910Z,12.00
2019-03-26T05:23:51.791Z,12.00
2019-03-26T05:24:48.882Z,12.00
2019-03-26T05:25:48.874Z,12.00
2019-03-26T05:26:48.960Z,12.00
2019-03-26T05:27:48.850Z,12.00
2019-03-26T05:28:48.846Z,12.00
2019-03-26T05:29:48.834Z,12.00
2019-03-26T05:30:48.817Z,12.00
2019-03-26T05:31:48.817Z,12.00
2019-03-26T05:32:48.953Z,12.00
2019-03-26T05:33:48.786Z,12.00
2019-03-26T05:34:48.774Z,12.00
2019-03-26T05:35:51.482Z,12.00
2019-03-26T05:36:51.684Z,12.00
2019-03-26T05:37:48.743Z,12.00
2019-03-26T05:38:48.828Z,12.00
2019-03-26T05:39:48.721Z,12.00
2019-03-26T05:40:48.712Z,12.00
2019-03-26T05:41:48.701Z,12.00
2019-03-26T05:42:48.692Z,12.00
2019-03-26T05:43:48.681Z,12.00
2019-03-26T05:44:48.762Z,12.00
2019-03-26T05:45:48.658Z,20.00
2019-03-26T05:46:48.657Z,16.00
2019-03-26T05:47:48.646Z,16.00
2019-03-26T05:48:48.628Z,16.00
2019-03-26T05:49:48.615Z,20.00
2019-03-26T05:50:48.809Z,24.00
2019-03-26T05:51:48.600Z,24.00
2019-03-26T05:52:48.578Z,24.00
2019-03-26T05:53:48.593Z,24.00
2019-03-26T05:54:48.557Z,24.00
2019-03-26T05:55:48.547Z,24.00
2019-03-26T05:56:48.635Z,24.00
2019-03-26T05:57:48.525Z,20.00
2019-03-26T05:58:48.515Z,20.00
2019-03-26T05:59:48.504Z,20.00
2019-03-26T06:00:48.494Z,20.00
2019-03-26T06:01:48.482Z,20.00
2019-03-26T06:02:48.573Z,20.00
2019-03-26T06:03:48.465Z,20.00
2019-03-26T06:04:48.456Z,20.00
2019-03-26T06:05:48.437Z,20.00
2019-03-26T06:06:48.426Z,24.00
2019-03-26T06:07:49.048Z,24.00
2019-03-26T06:08:48.509Z,24.00
2019-03-26T06:09:48.409Z,24.00
2019-03-26T06:10:48.383Z,24.00
2019-03-26T06:11:48.374Z,24.00
2019-03-26T06:12:50.269Z,24.00
2019-03-26T06:13:48.349Z,24.00
2019-03-26T06:14:48.595Z,24.00
2019-03-26T06:15:48.339Z,24.00
2019-03-26T06:16:48.325Z,24.00
2019-03-26T06:17:48.307Z,24.00
2019-03-26T06:18:48.297Z,24.00
2019-03-26T06:19:48.293Z,24.00
2019-03-26T06:20:48.395Z,24.00
2019-03-26T06:21:48.263Z,24.00
2019-03-26T06:22:48.252Z,24.00
2019-03-26T06:23:48.243Z,24.00
2019-03-26T06:24:48.233Z,20.00
2019-03-26T06:25:48.221Z,20.00
2019-03-26T06:26:48.336Z,24.00
2019-03-26T06:27:48.207Z,24.00
2019-03-26T06:28:48.188Z,24.00
2019-03-26T06:29:48.177Z,24.00
2019-03-26T06:30:48.166Z,24.00
2019-03-26T06:31:48.155Z,24.00
2019-03-26T06:32:48.421Z,24.00
2019-03-26T06:33:48.137Z,24.00
2019-03-26T06:34:48.123Z,24.00
2019-03-26T06:35:48.110Z,24.00
2019-03-26T06:36:48.102Z,24.00
2019-03-26T06:37:48.102Z,24.00
2019-03-26T06:38:48.174Z,24.00
2019-03-26T06:39:48.071Z,24.00
2019-03-26T06:40:48.062Z,24.00
2019-03-26T06:41:48.049Z,20.00
2019-03-26T06:42:48.037Z,24.00
2019-03-26T06:43:48.026Z,24.00
2019-03-26T06:44:48.130Z,24.00
2019-03-26T06:45:48.022Z,24.00
2019-03-26T06:46:47.997Z,24.00
2019-03-26T06:47:47.993Z,24.00
2019-03-26T06:48:47.980Z,24.00
2019-03-26T06:49:47.965Z,24.00
2019-03-26T06:50:48.060Z,24.00
2019-03-26T06:51:47.941Z,24.00
2019-03-26T06:52:47.930Z,28.00
2019-03-26T06:53:47.922Z,24.00
2019-03-26T06:54:47.916Z,24.00
2019-03-26T06:55:47.900Z,24.00
2019-03-26T06:56:48.191Z,24.00
2019-03-26T06:57:47.878Z,24.00
2019-03-26T06:58:47.864Z,24.00
2019-03-26T06:59:47.855Z,28.00
2019-03-26T07:00:47.842Z,28.00
2019-03-26T07:01:47.840Z,28.00
2019-03-26T07:02:48.118Z,24.00
2019-03-26T07:03:47.813Z,24.00
2019-03-26T07:04:47.801Z,24.00
2019-03-26T07:05:47.791Z,28.00
2019-03-26T07:06:47.779Z,28.00
2019-03-26T07:07:47.770Z,24.00
2019-03-26T07:08:47.858Z,24.00
2019-03-26T07:09:47.749Z,28.00
2019-03-26T07:10:47.734Z,28.00
2019-03-26T07:11:47.731Z,28.00
2019-03-26T07:12:47.722Z,28.00
2019-03-26T07:13:47.701Z,20.00
2019-03-26T07:14:47.866Z,20.00
2019-03-26T07:15:47.680Z,16.00
2019-03-26T07:16:47.671Z,16.00
2019-03-26T07:17:47.659Z,28.00
2019-03-26T07:18:47.650Z,28.00
2019-03-26T07:19:47.639Z,32.00
2019-03-26T07:20:47.717Z,24.00
2019-03-26T07:21:49.878Z,32.00
2019-03-26T07:22:47.610Z,16.00
2019-03-26T07:23:47.593Z,20.00
2019-03-26T07:24:47.584Z,20.00
2019-03-26T07:25:47.574Z,20.00
2019-03-26T07:26:47.658Z,20.00
2019-03-26T07:27:47.551Z,20.00
2019-03-26T07:28:47.544Z,20.00
2019-03-26T07:29:47.530Z,20.00
2019-03-26T07:30:47.519Z,28.00
2019-03-26T07:31:47.513Z,28.00
2019-03-26T07:32:47.660Z,24.00
2019-03-26T07:33:47.488Z,24.00
2019-03-26T07:34:47.477Z,24.00
2019-03-26T07:35:47.467Z,32.00
2019-03-26T07:36:47.456Z,32.00
2019-03-26T07:37:47.451Z,24.00
2019-03-26T07:38:47.551Z,24.00
2019-03-26T07:39:47.423Z,24.00
2019-03-26T07:40:47.415Z,20.00
2019-03-26T07:41:47.409Z,24.00
2019-03-26T07:42:47.396Z,20.00
2019-03-26T07:43:47.410Z,24.00
2019-03-26T07:44:47.464Z,36.00
2019-03-26T07:45:47.362Z,32.00
2019-03-26T07:46:47.348Z,24.00
2019-03-26T07:47:47.336Z,28.00
2019-03-26T07:48:47.329Z,28.00
2019-03-26T07:49:47.316Z,36.00
2019-03-26T07:50:47.470Z,36.00
2019-03-26T07:51:47.293Z,36.00
2019-03-26T07:52:47.287Z,36.00
2019-03-26T07:53:47.279Z,32.00
2019-03-26T07:54:47.264Z,36.00
2019-03-26T07:55:47.252Z,36.00
2019-03-26T07:56:47.397Z,36.00
2019-03-26T07:57:47.235Z,36.00
2019-03-26T07:58:47.222Z,36.00
2019-03-26T07:59:47.212Z,36.00
2019-03-26T08:00:47.197Z,36.00
2019-03-26T08:01:47.187Z,40.00
2019-03-26T08:02:47.591Z,36.00
2019-03-26T08:03:47.172Z,36.00
2019-03-26T08:04:47.155Z,36.00
2019-03-26T08:05:47.144Z,36.00
2019-03-26T08:06:47.137Z,32.00
2019-03-26T08:07:57.834Z,36.00
2019-03-26T08:08:48.205Z,32.00
2019-03-26T08:09:47.104Z,32.00
2019-03-26T08:10:47.089Z,36.00
2019-03-26T08:11:47.079Z,36.00
2019-03-26T08:12:47.072Z,36.00
2019-03-26T08:13:47.100Z,28.00
2019-03-26T08:14:47.348Z,28.00
2019-03-26T08:15:47.057Z,24.00
2019-03-26T08:16:47.041Z,28.00
2019-03-26T08:17:47.016Z,28.00
2019-03-26T08:18:47.003Z,32.00
2019-03-26T08:19:46.996Z,40.00
2019-03-26T08:20:47.238Z,40.00
2019-03-26T08:21:46.972Z,36.00
2019-03-26T08:22:46.964Z,32.00
2019-03-26T08:23:47.479Z,36.00
2019-03-26T08:24:46.942Z,36.00
2019-03-26T08:25:46.932Z,36.00
2019-03-26T08:26:47.010Z,36.00
2019-03-26T08:27:46.990Z,28.00
2019-03-26T08:28:46.896Z,32.00
2019-03-26T08:29:46.887Z,32.00
2019-03-26T08:30:50.010Z,28.00
2019-03-26T08:31:46.863Z,28.00
2019-03-26T08:32:47.109Z,32.00
2019-03-26T08:33:46.849Z,32.00
2019-03-26T08:34:46.947Z,32.00
2019-03-26T08:35:46.835Z,32.00
2019-03-26T08:36:46.813Z,28.00
2019-03-26T08:37:46.801Z,24.00
2019-03-26T08:38:46.893Z,32.00
2019-03-26T08:39:46.853Z,32.00
2019-03-26T08:40:46.776Z,28.00
2019-03-26T08:41:46.757Z,32.00
2019-03-26T08:42:46.748Z,32.00
2019-03-26T08:43:46.737Z,32.00
2019-03-26T08:44:46.820Z,32.00
2019-03-26T08:45:46.731Z,28.00
2019-03-26T08:46:46.708Z,32.00
2019-03-26T08:47:46.694Z,28.00
2019-03-26T08:48:46.681Z,32.00
2019-03-26T08:49:46.674Z,32.00
2019-03-26T08:50:46.831Z,28.00
2019-03-26T08:51:46.658Z,32.00
2019-03-26T08:52:46.649Z,32.00
2019-03-26T08:53:46.631Z,32.00
2019-03-26T08:54:46.618Z,36.00
2019-03-26T08:55:46.609Z,36.00
2019-03-26T08:56:46.884Z,36.00
2019-03-26T08:57:46.586Z,40.00
2019-03-26T08:58:46.580Z,36.00
2019-03-26T08:59:46.567Z,40.00
2019-03-26T09:00:46.556Z,32.00
2019-03-26T09:01:46.548Z,28.00
2019-03-26T09:02:46.645Z,28.00
2019-03-26T09:03:46.522Z,32.00
2019-03-26T09:04:46.514Z,28.00
2019-03-26T09:05:46.500Z,32.00
2019-03-26T09:06:46.490Z,32.00
2019-03-26T09:07:46.479Z,44.00
2019-03-26T09:08:46.564Z,48.00
2019-03-26T09:09:46.458Z,48.00
2019-03-26T09:10:51.551Z,36.00
2019-03-26T09:11:47.435Z,32.00
2019-03-26T09:12:46.442Z,44.00
2019-03-26T09:13:46.414Z,48.00
2019-03-26T09:14:46.598Z,48.00
2019-03-26T09:15:46.395Z,52.00
2019-03-26T09:16:46.386Z,52.00
2019-03-26T09:17:46.375Z,52.00
2019-03-26T09:18:46.366Z,48.00
2019-03-26T09:19:46.352Z,48.00
2019-03-26T09:20:46.440Z,52.00
2019-03-26T09:21:46.330Z,52.00
2019-03-26T09:22:46.319Z,52.00
2019-03-26T09:23:46.311Z,52.00
2019-03-26T09:24:46.299Z,52.00
2019-03-26T09:25:46.287Z,52.00
2019-03-26T09:26:46.462Z,56.00
2019-03-26T09:27:46.265Z,56.00
2019-03-26T09:28:47.825Z,44.00
2019-03-26T09:29:46.245Z,44.00
2019-03-26T09:30:46.233Z,56.00
2019-03-26T09:31:46.221Z,56.00
2019-03-26T09:32:46.375Z,52.00
2019-03-26T09:33:46.199Z,48.00
2019-03-26T09:34:46.199Z,32.00
2019-03-26T09:35:46.184Z,32.00
2019-03-26T09:36:46.169Z,32.00
2019-03-26T09:37:46.156Z,32.00
2019-03-26T09:38:46.266Z,32.00
2019-03-26T09:39:46.140Z,32.00
2019-03-26T09:40:46.129Z,32.00
2019-03-26T09:41:46.142Z,48.00
2019-03-26T09:42:46.123Z,56.00
2019-03-26T09:43:46.093Z,56.00
2019-03-26T09:44:46.381Z,60.00
2019-03-26T09:45:46.071Z,56.00
2019-03-26T09:46:46.060Z,56.00
2019-03-26T09:47:46.051Z,60.00
2019-03-26T09:48:46.042Z,56.00
2019-03-26T09:49:46.027Z,56.00
2019-03-26T09:50:46.116Z,56.00
2019-03-26T09:51:46.016Z,60.00
2019-03-26T09:52:46.000Z,60.00
2019-03-26T09:53:45.986Z,60.00
2019-03-26T09:54:45.975Z,64.00
2019-03-26T09:55:45.962Z,56.00
2019-03-26T09:56:46.048Z,60.00
2019-03-26T09:57:45.947Z,60.00
2019-03-26T09:58:45.936Z,60.00
2019-03-26T09:59:45.919Z,60.00
2019-03-26T10:00:46.000Z,32.00
2019-03-26T10:01:45.897Z,60.00
2019-03-26T10:02:45.984Z,32.00
2019-03-26T10:03:45.876Z,32.00
2019-03-26T10:04:45.871Z,32.00
2019-03-26T10:05:45.854Z,32.00
2019-03-26T10:06:45.845Z,32.00
2019-03-26T10:07:45.834Z,64.00
2019-03-26T10:08:52.317Z,60.00
2019-03-26T10:09:46.811Z,60.00
2019-03-26T10:10:45.827Z,64.00
2019-03-26T10:11:45.790Z,64.00
2019-03-26T10:12:45.779Z,68.00
2019-03-26T10:13:45.773Z,64.00
2019-03-26T10:14:46.723Z,68.00
2019-03-26T10:15:45.747Z,64.00
2019-03-26T10:16:45.749Z,64.00
2019-03-26T10:17:45.725Z,64.00
2019-03-26T10:18:45.715Z,68.00
2019-03-26T10:19:45.704Z,68.00
2019-03-26T10:20:45.789Z,68.00
2019-03-26T10:21:45.692Z,32.00
2019-03-26T10:22:45.671Z,64.00
2019-03-26T10:23:45.660Z,72.00
2019-03-26T10:24:45.648Z,72.00
2019-03-26T10:25:45.638Z,76.00
2019-03-26T10:26:45.746Z,76.00
2019-03-26T10:27:45.618Z,72.00
2019-03-26T10:28:45.607Z,72.00
2019-03-26T10:29:45.603Z,68.00
2019-03-26T10:30:45.586Z,68.00
2019-03-26T10:31:45.571Z,68.00
2019-03-26T10:32:45.838Z,76.00
2019-03-26T10:33:45.556Z,64.00
2019-03-26T10:34:45.540Z,80.00
2019-03-26T10:35:45.532Z,76.00
2019-03-26T10:36:45.535Z,76.00
2019-03-26T10:37:45.507Z,84.00
2019-03-26T10:38:45.594Z,80.00
2019-03-26T10:39:45.485Z,80.00
2019-03-26T10:40:45.573Z,80.00
2019-03-26T10:41:45.468Z,84.00
2019-03-26T10:42:45.455Z,28.00
2019-03-26T10:43:45.448Z,80.00
2019-03-26T10:44:45.536Z,84.00
2019-03-26T10:45:45.423Z,80.00
2019-03-26T10:46:45.417Z,84.00
2019-03-26T10:47:45.402Z,88.00
2019-03-26T10:48:45.390Z,84.00
2019-03-26T10:49:45.384Z,84.00
2019-03-26T10:50:45.649Z,84.00
2019-03-26T10:51:45.361Z,84.00
2019-03-26T10:52:45.347Z,88.00
2019-03-26T10:53:45.337Z,88.00
2019-03-26T10:54:45.322Z,84.00
2019-03-26T10:55:45.312Z,88.00
2019-03-26T10:56:45.460Z,84.00
2019-03-26T10:57:45.290Z,84.00
2019-03-26T10:58:45.280Z,88.00
2019-03-26T10:59:45.273Z,88.00
2019-03-26T11:00:45.286Z,88.00
2019-03-26T11:01:45.247Z,88.00
2019-03-26T11:02:45.333Z,88.00
2019-03-26T11:03:45.224Z,88.00
2019-03-26T11:04:45.217Z,92.00
2019-03-26T11:05:45.208Z,96.00
2019-03-26T11:06:45.208Z,96.00
2019-03-26T11:07:45.180Z,96.00
2019-03-26T11:08:45.407Z,96.00
2019-03-26T11:09:45.162Z,96.00
2019-03-26T11:10:45.149Z,96.00
2019-03-26T11:11:45.148Z,96.00
2019-03-26T11:12:45.128Z,100.00
2019-03-26T11:13:45.115Z,100.00
2019-03-26T11:14:45.404Z,104.00
2019-03-26T11:15:45.094Z,104.00
2019-03-26T11:16:45.085Z,104.00
2019-03-26T11:17:45.071Z,92.00
2019-03-26T11:18:45.061Z,104.00
2019-03-26T11:19:46.583Z,108.00
2019-03-26T11:20:45.202Z,112.00
2019-03-26T11:21:45.031Z,108.00
2019-03-26T11:22:45.024Z,108.00
2019-03-26T11:23:45.031Z,112.00
2019-03-26T11:24:44.996Z,112.00
2019-03-26T11:25:44.994Z,112.00
2019-03-26T11:26:45.066Z,108.00
2019-03-26T11:27:44.968Z,108.00
2019-03-26T11:28:44.954Z,112.00
2019-03-26T11:29:44.950Z,108.00
2019-03-26T11:30:44.930Z,116.00
2019-03-26T11:31:44.929Z,116.00
2019-03-26T11:32:45.165Z,116.00
2019-03-26T11:33:44.911Z,116.00
2019-03-26T11:34:44.891Z,116.00
2019-03-26T11:35:44.886Z,120.00
2019-03-26T11:36:44.869Z,120.00
2019-03-26T11:37:44.856Z,116.00
2019-03-26T11:38:44.947Z,120.00
2019-03-26T11:39:44.835Z,116.00
2019-03-26T11:40:44.825Z,116.00
2019-03-26T11:41:44.818Z,124.00
2019-03-26T11:42:44.802Z,104.00
2019-03-26T11:43:44.792Z,96.00
2019-03-26T11:44:44.876Z,96.00
2019-03-26T11:45:44.771Z,128.00
2019-03-26T11:46:44.762Z,96.00
2019-03-26T11:47:44.752Z,132.00
2019-03-26T11:48:44.740Z,128.00
2019-03-26T11:49:44.730Z,124.00
2019-03-26T11:50:44.886Z,104.00
2019-03-26T11:51:44.720Z,132.00
2019-03-26T11:52:44.719Z,112.00
2019-03-26T11:53:44.691Z,132.00
2019-03-26T11:54:44.680Z,136.00
2019-03-26T11:55:44.669Z,140.00
2019-03-26T11:56:44.756Z,140.00
2019-03-26T11:57:44.649Z,136.00
2019-03-26T11:58:44.649Z,124.00
2019-03-26T11:59:44.630Z,80.00
2019-03-26T12:00:44.608Z,80.00
2019-03-26T12:01:44.612Z,96.00
2019-03-26T12:02:44.703Z,84.00
2019-03-26T12:03:44.577Z,108.00
2019-03-26T12:04:44.566Z,140.00
2019-03-26T12:05:44.557Z,156.00
2019-03-26T12:06:44.552Z,92.00
2019-03-26T12:07:44.535Z,88.00
2019-03-26T12:08:44.701Z,80.00
2019-03-26T12:09:46.522Z,116.00
2019-03-26T12:10:44.503Z,100.00
2019-03-26T12:11:44.491Z,124.00
2019-03-26T12:12:44.485Z,140.00
2019-03-26T12:13:44.474Z,108.00
2019-03-26T12:14:44.582Z,136.00
2019-03-26T12:15:44.446Z,136.00
2019-03-26T12:16:44.435Z,140.00
2019-03-26T12:17:44.423Z,96.00
2019-03-26T12:18:44.425Z,120.00
2019-03-26T12:19:44.401Z,124.00
2019-03-26T12:20:44.505Z,132.00
2019-03-26T12:21:44.382Z,132.00
2019-03-26T12:22:44.408Z,132.00
2019-03-26T12:23:44.358Z,132.00
2019-03-26T12:24:44.351Z,132.00
2019-03-26T12:25:44.343Z,132.00
2019-03-26T12:26:44.491Z,132.00
2019-03-26T12:27:44.316Z,128.00
2019-03-26T12:28:44.312Z,132.00
2019-03-26T12:29:44.297Z,128.00
2019-03-26T12:30:44.303Z,132.00
2019-03-26T12:31:44.276Z,140.00
2019-03-26T12:32:44.376Z,112.00
2019-03-26T12:33:44.255Z,136.00
2019-03-26T12:34:44.246Z,140.00
2019-03-26T12:35:44.251Z,136.00
2019-03-26T12:36:44.219Z,140.00
2019-03-26T12:37:44.207Z,136.00
2019-03-26T12:38:44.398Z,136.00
2019-03-26T12:39:44.457Z,136.00
2019-03-26T12:40:44.180Z,132.00
2019-03-26T12:41:44.185Z,136.00
2019-03-26T12:42:44.152Z,136.00
2019-03-26T12:43:44.141Z,136.00
2019-03-26T12:44:44.231Z,136.00
2019-03-26T12:45:44.122Z,132.00
2019-03-26T12:46:44.114Z,136.00
2019-03-26T12:47:44.099Z,136.00
2019-03-26T12:48:44.088Z,132.00
2019-03-26T12:49:44.086Z,136.00
2019-03-26T12:50:44.257Z,136.00
2019-03-26T12:51:44.069Z,136.00
2019-03-26T12:52:44.047Z,136.00
2019-03-26T12:53:44.033Z,148.00
2019-03-26T12:54:44.023Z,136.00
2019-03-26T12:55:44.018Z,140.00
2019-03-26T12:56:44.119Z,144.00
2019-03-26T12:57:43.990Z,144.00
2019-03-26T12:58:43.984Z,148.00
2019-03-26T12:59:43.977Z,144.00